createdAt,value
2022-11-18T00:01:34.501Z,96920.55
2022-11-18T00:04:01.764Z,96920.86
2022-11-18T00:06:30.130Z,96918.89
2022-11-18T00:08:58.957Z,96918.02
2022-11-18T00:11:26.810Z,96919.16
2022-11-18T00:13:53.549Z,96924.94
2022-11-18T00:16:19.997Z,96924.55
2022-11-18T00:18:46.525Z,96921.74
2022-11-18T00:21:13.274Z,96922.79
2022-11-18T00:23:40.985Z,96920.81
2022-11-18T00:26:11.229Z,96921.55
2022-11-18T00:28:38.707Z,96921.27
2022-11-18T00:31:06.909Z,96915.41
2022-11-18T00:33:34.170Z,96915.55
2022-11-18T00:36:00.821Z,96915.93
2022-11-18T00:38:27.562Z,96917.60
2022-11-18T00:41:01.590Z,96915.33
2022-11-18T00:43:28.219Z,96913.23
2022-11-18T00:45:54.757Z,96907.14
2022-11-18T00:48:21.403Z,96905.30
2022-11-18T00:50:53.308Z,96893.85
2022-11-18T00:53:21.727Z,96891.86
2022-11-18T00:55:48.277Z,96894.12
2022-11-18T00:58:15.237Z,96899.89
2022-11-18T01:00:42.506Z,96892.27
2022-11-18T01:03:10.655Z,96889.27
2022-11-18T01:05:38.097Z,96890.85
2022-11-18T01:08:07.973Z,96883.04
2022-11-18T01:10:35.514Z,96878.61
2022-11-18T01:13:01.992Z,96873.54
2022-11-18T01:15:28.495Z,96872.31
2022-11-18T01:17:55.072Z,96873.30
2022-11-18T01:20:21.670Z,96872.03
2022-11-18T01:22:48.068Z,96867.85
2022-11-18T01:25:14.646Z,96868.69
2022-11-18T01:27:41.189Z,96873.79
2022-11-18T01:30:08.219Z,96879.59
2022-11-18T01:32:34.850Z,96879.80
2022-11-18T01:35:01.304Z,96881.17
2022-11-18T01:37:27.798Z,96882.42
2022-11-18T01:39:54.216Z,96878.36
2022-11-18T01:42:20.686Z,96873.31
2022-11-18T01:45:07.488Z,96872.55
2022-11-18T01:47:59.157Z,96868.73
2022-11-18T01:50:26.149Z,96871.73
2022-11-18T01:52:57.876Z,96869.69
2022-11-18T01:55:30.070Z,96869.30
2022-11-18T01:58:05.626Z,96871.98
2022-11-18T02:00:32.162Z,96868.50
2022-11-18T02:03:01.035Z,96866.36
2022-11-18T02:05:29.042Z,96860.84
2022-11-18T02:07:55.858Z,96860.06
2022-11-18T02:10:24.292Z,96861.16
2022-11-18T02:12:52.640Z,96860.63
2022-11-18T02:15:25.167Z,96862.80
2022-11-18T02:18:03.331Z,96860.23
2022-11-18T02:20:44.307Z,96860.23
2022-11-18T02:23:50.671Z,96857.30
2022-11-18T02:26:29.285Z,96856.88
2022-11-18T02:29:01.718Z,96854.94
2022-11-18T02:31:35.491Z,96856.39
2022-11-18T02:34:18.392Z,96848.89
2022-11-18T02:37:04.788Z,96842.63
2022-11-18T02:40:14.298Z,96835.82
2022-11-18T02:42:45.037Z,96833.99
2022-11-18T02:45:17.271Z,96837.05
2022-11-18T02:47:47.739Z,96830.51
2022-11-18T02:50:20.796Z,96826.10
2022-11-18T02:52:53.285Z,96820.52
2022-11-18T02:55:22.110Z,96821.58
2022-11-18T02:57:49.547Z,96814.45
2022-11-18T03:00:16.898Z,96810.73
2022-11-18T03:02:48.736Z,96812.79
2022-11-18T03:05:43.398Z,96818.74
2022-11-18T03:08:17.352Z,96814.89
2022-11-18T03:10:55.934Z,96818.86
2022-11-18T03:13:36.273Z,96819.88
2022-11-18T03:16:07.097Z,96825.83
2022-11-18T03:19:15.449Z,96829.58
2022-11-18T03:21:48.020Z,96831.27
2022-11-18T03:24:25.810Z,96835.51
2022-11-18T03:27:00.980Z,96829.83
2022-11-18T03:29:37.630Z,96824.00
2022-11-18T03:32:12.795Z,96827.06
2022-11-18T03:34:49.890Z,96823.11
2022-11-18T03:37:19.688Z,96825.00
2022-11-18T03:39:51.338Z,96825.35
2022-11-18T03:42:35.639Z,96824.30
2022-11-18T03:45:34.509Z,96823.17
2022-11-18T03:48:07.694Z,96815.48
2022-11-18T03:50:39.471Z,96816.60
2022-11-18T03:53:08.044Z,96812.89
2022-11-18T03:55:40.750Z,96811.91
2022-11-18T03:58:18.720Z,96809.48
2022-11-18T04:00:49.898Z,96808.08
2022-11-18T04:03:16.451Z,96811.84
2022-11-18T04:05:43.837Z,96805.90
2022-11-18T04:08:27.766Z,96806.48
2022-11-18T04:11:15.068Z,96804.87
2022-11-18T04:13:41.735Z,96801.92
2022-11-18T04:16:08.198Z,96799.63
2022-11-18T04:18:34.681Z,96794.77
2022-11-18T04:21:01.068Z,96788.33
2022-11-18T04:23:27.474Z,96785.12
2022-11-18T04:25:53.898Z,96782.48
2022-11-18T04:28:20.333Z,96781.98
2022-11-18T04:30:46.733Z,96780.98
2022-11-18T04:33:13.211Z,96780.19
2022-11-18T04:35:39.698Z,96781.55
2022-11-18T04:38:06.079Z,96780.40
2022-11-18T04:40:32.590Z,96777.88
2022-11-18T04:42:59.195Z,96781.73
2022-11-18T04:45:25.708Z,96776.44
2022-11-18T04:47:52.157Z,96772.36
2022-11-18T04:50:18.650Z,96772.42
2022-11-18T04:52:45.094Z,96773.80
2022-11-18T04:55:11.561Z,96775.29
2022-11-18T04:57:38.070Z,96772.75
2022-11-18T05:00:05.343Z,96771.10
2022-11-18T05:02:31.802Z,96765.50
2022-11-18T05:04:58.216Z,96765.54
2022-11-18T05:07:24.830Z,96767.95
2022-11-18T05:09:51.353Z,96772.77
2022-11-18T05:12:17.754Z,96779.11
2022-11-18T05:14:49.686Z,96786.80
2022-11-18T05:17:18.207Z,96791.61
2022-11-18T05:19:44.769Z,96788.38
2022-11-18T05:22:11.400Z,96792.98
2022-11-18T05:24:37.964Z,96789.92
2022-11-18T05:27:04.471Z,96794.23
2022-11-18T05:29:31.011Z,96797.64
2022-11-18T05:31:57.456Z,96792.61
2022-11-18T05:34:23.884Z,96791.52
2022-11-18T05:36:50.518Z,96791.65
2022-11-18T05:39:17.783Z,96796.67
2022-11-18T05:41:44.501Z,96804.91
2022-11-18T05:44:11.160Z,96809.02
2022-11-18T05:46:37.922Z,96810.55
2022-11-18T05:49:04.360Z,96808.01
2022-11-18T05:51:30.743Z,96812.17
2022-11-18T05:53:57.624Z,96818.10
2022-11-18T05:56:30.924Z,96822.27
2022-11-18T05:58:57.486Z,96826.91
2022-11-18T06:01:32.941Z,96827.59
2022-11-18T06:04:01.979Z,96832.06
2022-11-18T06:06:28.587Z,96829.31
2022-11-18T06:09:01.239Z,96828.81
2022-11-18T06:11:30.509Z,96827.77
2022-11-18T06:14:03.426Z,96826.38
2022-11-18T06:16:35.296Z,96823.33
2022-11-18T06:19:05.138Z,96819.52
2022-11-18T06:21:31.541Z,96816.73
2022-11-18T06:23:58.934Z,96817.70
2022-11-18T06:26:25.681Z,96819.69
2022-11-18T06:28:52.324Z,96829.17
2022-11-18T06:31:18.892Z,96840.06
2022-11-18T06:33:45.400Z,96845.40
2022-11-18T06:36:12.331Z,96849.33
2022-11-18T06:38:38.752Z,96850.71
2022-11-18T06:41:05.332Z,96849.02
2022-11-18T06:43:31.873Z,96849.17
2022-11-18T06:46:08.671Z,96848.13
2022-11-18T06:48:35.696Z,96848.69
2022-11-18T06:51:05.666Z,96852.95
2022-11-18T06:53:35.243Z,96852.42
2022-11-18T06:56:06.853Z,96853.25
2022-11-18T06:58:33.526Z,96854.05
2022-11-18T07:01:20.209Z,96849.33
2022-11-18T07:03:48.004Z,96847.46
2022-11-18T07:06:17.757Z,96846.14
2022-11-18T07:08:44.354Z,96841.84
2022-11-18T07:11:13.571Z,96841.55
2022-11-18T07:13:43.717Z,96839.40
2022-11-18T07:16:10.577Z,96838.67
2022-11-18T07:18:39.288Z,96840.44
2022-11-18T07:21:08.245Z,96837.20
2022-11-18T07:23:34.886Z,96832.51
2022-11-18T07:26:02.112Z,96831.23
2022-11-18T07:28:29.380Z,96831.48
2022-11-18T07:31:06.389Z,96823.17
2022-11-18T07:33:34.262Z,96821.38
2022-11-18T07:36:12.678Z,96825.02
2022-11-18T07:38:40.137Z,96829.69
2022-11-18T07:41:27.364Z,96826.52
2022-11-18T07:44:00.309Z,96830.30
2022-11-18T07:46:32.957Z,96829.14
2022-11-18T07:49:01.719Z,96825.05
2022-11-18T07:51:34.305Z,96822.66
2022-11-18T07:54:01.867Z,96822.23
2022-11-18T07:56:28.509Z,96817.85
2022-11-18T07:58:56.073Z,96818.04
2022-11-18T08:01:24.971Z,96814.81
2022-11-18T08:03:52.224Z,96821.52
2022-11-18T08:06:19.583Z,96824.86
2022-11-18T08:08:47.354Z,96827.45
2022-11-18T08:11:21.862Z,96824.55
2022-11-18T08:13:49.908Z,96823.13
2022-11-18T08:16:19.583Z,96809.84
2022-11-18T08:18:46.867Z,96810.52
2022-11-18T08:21:15.220Z,96829.19
2022-11-18T08:23:42.462Z,96839.05
2022-11-18T08:26:14.463Z,96845.29
2022-11-18T08:28:45.124Z,96847.51
2022-11-18T08:31:15.760Z,96856.11
2022-11-18T08:33:42.179Z,96856.83
2022-11-18T08:36:10.476Z,96863.42
2022-11-18T08:38:36.904Z,96862.26
2022-11-18T08:41:04.029Z,96848.92
2022-11-18T08:43:30.554Z,96845.27
2022-11-18T08:45:56.982Z,96840.94
2022-11-18T08:48:23.432Z,96839.77
2022-11-18T08:50:50.001Z,96840.88
2022-11-18T08:53:16.438Z,96847.45
2022-11-18T08:55:42.957Z,96854.55
2022-11-18T08:58:09.442Z,96856.13
2022-11-18T09:00:35.894Z,96861.81
2022-11-18T09:03:02.369Z,96868.95
2022-11-18T09:05:29.366Z,96878.41
2022-11-18T09:07:55.959Z,96874.70
2022-11-18T09:10:22.385Z,96872.64
2022-11-18T09:12:48.941Z,96869.30
2022-11-18T09:15:15.581Z,96866.64
2022-11-18T09:17:42.124Z,96864.84
2022-11-18T09:20:09.350Z,96864.02
2022-11-18T09:22:37.026Z,96860.86
2022-11-18T09:25:03.588Z,96868.38
2022-11-18T09:27:30.432Z,96870.68
2022-11-18T09:29:56.819Z,96876.91
2022-11-18T09:34:23.443Z,96884.27
2022-11-18T09:36:50.273Z,96876.87
2022-11-18T09:39:16.951Z,96868.66
2022-11-18T09:41:48.081Z,96868.41
2022-11-18T09:44:20.644Z,96860.52
2022-11-18T09:46:52.903Z,96866.06
2022-11-18T09:49:30.597Z,96870.19
2022-11-18T09:51:57.682Z,96875.00
2022-11-18T09:54:33.531Z,96867.22
2022-11-18T09:57:00.077Z,96861.64
2022-11-18T09:59:31.056Z,96860.66
2022-11-18T10:02:36.766Z,96860.52
2022-11-18T10:05:20.019Z,96870.13
2022-11-18T10:08:10.653Z,96876.65
2022-11-18T10:10:42.558Z,96879.55
2022-11-18T10:13:18.133Z,96881.90
2022-11-18T10:16:01.546Z,96876.30
2022-11-18T10:21:35.173Z,96866.73
2022-11-18T10:24:15.890Z,96862.63
2022-11-18T10:26:42.984Z,96860.55
2022-11-18T10:29:09.765Z,96874.08
2022-11-18T10:32:04.599Z,96885.83
2022-11-18T10:34:33.592Z,96880.02
2022-11-18T10:37:13.424Z,96878.52
2022-11-18T10:40:01.464Z,96869.42
2022-11-18T10:42:29.402Z,96870.80
2022-11-18T10:44:56.794Z,96874.33
2022-11-18T10:47:26.629Z,96871.50
2022-11-18T10:49:56.602Z,96868.48
2022-11-18T10:52:23.691Z,96859.73
2022-11-18T10:55:24.748Z,96869.33
2022-11-18T10:57:58.255Z,96874.60
2022-11-18T11:00:36.766Z,96871.23
2022-11-18T11:03:23.676Z,96869.01
2022-11-18T11:06:13.381Z,96860.59
2022-11-18T11:09:09.081Z,96866.36
2022-11-18T11:11:57.737Z,96866.73
2022-11-18T11:14:31.117Z,96870.55
2022-11-18T11:17:04.088Z,96875.73
2022-11-18T11:19:38.838Z,96876.67
2022-11-18T11:22:09.716Z,96877.16
2022-11-18T11:24:37.293Z,96878.05
2022-11-18T11:30:23.507Z,96872.58
2022-11-18T11:33:31.505Z,96870.81
2022-11-18T11:36:16.672Z,96862.96
2022-11-18T11:38:52.384Z,96871.20
2022-11-18T11:41:29.512Z,96873.13
2022-11-18T11:44:14.597Z,96874.56
2022-11-18T11:47:18.516Z,96876.52
2022-11-18T11:50:02.269Z,96876.61
2022-11-18T11:52:50.029Z,96873.07
2022-11-18T11:55:25.597Z,96874.61
2022-11-18T11:58:13.487Z,96873.64
2022-11-18T12:00:44.855Z,96876.14
2022-11-18T12:03:17.085Z,96874.94
2022-11-18T12:05:43.556Z,96875.69
2022-11-18T12:08:16.192Z,96871.84
2022-11-18T12:10:54.698Z,96871.52
2022-11-18T12:14:12.222Z,96873.52
2022-11-18T12:16:49.766Z,96881.75
2022-11-18T12:19:19.221Z,96886.50
2022-11-18T12:21:45.766Z,96886.42
2022-11-18T12:24:18.330Z,96882.73
2022-11-18T12:26:47.447Z,96885.12
2022-11-18T12:29:19.858Z,96881.90
2022-11-18T12:31:48.422Z,96885.73
2022-11-18T12:34:33.560Z,96885.41
2022-11-18T12:37:26.112Z,96892.95
2022-11-18T12:39:55.309Z,96882.10
2022-11-18T12:42:42.030Z,96882.89
2022-11-18T12:45:39.885Z,96893.36
2022-11-18T12:48:29.777Z,96900.48
2022-11-18T12:51:01.964Z,96903.69
2022-11-18T12:53:39.456Z,96899.17
2022-11-18T12:56:28.120Z,96904.73
2022-11-18T12:58:56.878Z,96910.48
2022-11-18T13:01:26.034Z,96914.52
2022-11-18T13:03:53.471Z,96912.95
2022-11-18T13:06:31.306Z,96915.59
2022-11-18T13:09:01.315Z,96916.88
2022-11-18T13:11:30.939Z,96915.52
2022-11-18T13:13:58.007Z,96913.39
2022-11-18T13:16:25.115Z,96917.92
2022-11-18T13:18:53.476Z,96922.33
2022-11-18T13:21:22.794Z,96923.23
2022-11-18T13:23:49.279Z,96931.77
2022-11-18T13:26:20.269Z,96930.73
2022-11-18T13:29:00.944Z,96931.25
2022-11-18T13:31:32.789Z,96927.49
2022-11-18T13:34:18.082Z,96941.60
2022-11-18T13:36:46.582Z,96949.59
2022-11-18T13:39:20.818Z,96947.67
2022-11-18T13:41:58.901Z,96947.10
2022-11-18T13:44:27.969Z,96950.70
2022-11-18T13:47:21.484Z,96952.09
2022-11-18T13:49:54.787Z,96954.91
2022-11-18T13:52:30.570Z,96958.10
2022-11-18T13:54:59.726Z,96963.56
2022-11-18T13:57:28.302Z,96961.88
2022-11-18T13:59:55.675Z,96965.85
2022-11-18T14:02:22.350Z,96963.50
2022-11-18T14:04:55.511Z,96968.96
2022-11-18T14:07:35.502Z,96970.36
2022-11-18T14:10:15.272Z,96972.77
2022-11-18T14:12:41.794Z,96971.94
2022-11-18T14:15:22.942Z,96968.24
2022-11-18T14:17:51.271Z,96968.43
2022-11-18T14:20:18.166Z,96970.30
2022-11-18T14:22:45.948Z,96968.10
2022-11-18T14:25:20.037Z,96965.77
2022-11-18T14:27:52.287Z,96967.73
2022-11-18T14:30:29.004Z,96969.51
2022-11-18T14:33:17.394Z,96973.95
2022-11-18T14:35:48.486Z,96978.38
2022-11-18T14:38:52.423Z,96982.09
2022-11-18T14:41:26.730Z,96986.36
2022-11-18T14:43:53.254Z,96987.45
2022-11-18T14:46:19.745Z,96989.23
2022-11-18T14:48:46.617Z,96988.61
2022-11-18T14:51:15.582Z,96992.91
2022-11-18T14:53:43.322Z,96998.20
2022-11-18T14:56:31.002Z,96999.34
2022-11-18T14:58:57.799Z,97004.55
2022-11-18T15:01:29.240Z,97010.77
2022-11-18T15:03:57.246Z,97015.39
2022-11-18T15:06:23.996Z,97011.84
2022-11-18T15:08:52.538Z,97011.00
2022-11-18T15:11:19.631Z,97017.89
2022-11-18T15:13:46.453Z,97020.01
2022-11-18T15:16:17.318Z,97028.40
2022-11-18T15:18:45.912Z,97026.78
2022-11-18T15:21:12.536Z,97031.20
2022-11-18T15:23:39.309Z,97031.73
2022-11-18T15:26:25.804Z,97035.30
2022-11-18T15:28:54.992Z,97030.75
2022-11-18T15:31:22.572Z,97035.88
2022-11-18T15:33:49.419Z,97039.63
2022-11-18T15:36:18.914Z,97043.88
2022-11-18T15:38:45.985Z,97051.74
2022-11-18T15:41:25.224Z,97052.59
2022-11-18T15:43:53.458Z,97053.80
2022-11-18T15:46:22.673Z,97052.65
2022-11-18T15:48:54.166Z,97052.74
2022-11-18T15:51:21.824Z,97058.77
2022-11-18T15:53:48.256Z,97061.94
2022-11-18T15:56:20.730Z,97054.86
2022-11-18T15:58:59.154Z,97060.48
2022-11-18T16:01:28.159Z,97071.56
2022-11-18T16:03:54.831Z,97070.73
2022-11-18T16:06:22.134Z,97072.96
2022-11-18T16:08:50.395Z,97081.10
2022-11-18T16:11:20.086Z,97082.30
2022-11-18T16:13:46.579Z,97085.04
2022-11-18T16:16:24.623Z,97090.33
2022-11-18T16:18:58.577Z,97092.08
2022-11-18T16:21:26.068Z,97095.66
2022-11-18T16:23:59.613Z,97103.48
2022-11-18T16:26:27.342Z,97098.56
2022-11-18T16:28:54.081Z,97097.02
2022-11-18T16:31:21.137Z,97095.70
2022-11-18T16:33:47.622Z,97107.59
2022-11-18T16:36:14.246Z,97107.92
2022-11-18T16:38:40.854Z,97111.14
2022-11-18T16:41:07.274Z,97104.93
2022-11-18T16:43:33.731Z,97102.27
2022-11-18T16:46:00.154Z,97101.79
2022-11-18T16:48:26.552Z,97103.27
2022-11-18T16:51:21.715Z,97107.13
2022-11-18T16:53:59.932Z,97106.44
2022-11-18T16:56:29.168Z,97116.33
2022-11-18T16:58:57.496Z,97115.65
2022-11-18T17:01:29.110Z,97119.21
2022-11-18T17:03:57.642Z,97115.46
2022-11-18T17:06:24.970Z,97127.52
2022-11-18T17:08:51.548Z,97128.01
2022-11-18T17:11:18.134Z,97129.04
2022-11-18T17:13:44.565Z,97128.23
2022-11-18T17:16:13.733Z,97126.27
2022-11-18T17:18:40.856Z,97135.20
2022-11-18T17:21:12.724Z,97132.21
2022-11-18T17:23:41.000Z,97130.92
2022-11-18T17:26:08.286Z,97129.48
2022-11-18T17:28:36.349Z,97139.55
2022-11-18T17:31:07.690Z,97137.22
2022-11-18T17:33:34.637Z,97132.14
2022-11-18T17:36:06.170Z,97126.88
2022-11-18T17:38:34.723Z,97134.20
2022-11-18T17:41:01.670Z,97141.87
2022-11-18T17:43:28.718Z,97142.21
2022-11-18T17:45:58.322Z,97139.35
2022-11-18T17:48:27.056Z,97137.50
2022-11-18T17:50:54.060Z,97138.55
2022-11-18T17:53:21.388Z,97142.98
2022-11-18T17:55:47.841Z,97147.77
2022-11-18T17:58:14.297Z,97149.30
2022-11-18T18:00:40.835Z,97149.14
2022-11-18T18:03:07.375Z,97152.38
2022-11-18T18:05:33.822Z,97153.06
2022-11-18T18:08:00.288Z,97162.57
2022-11-18T18:10:27.197Z,97161.04
2022-11-18T18:12:53.696Z,97165.11
2022-11-18T18:15:20.078Z,97167.98
2022-11-18T18:17:47.409Z,97175.77
2022-11-18T18:20:14.385Z,97169.96
2022-11-18T18:22:40.928Z,97166.73
2022-11-18T18:25:08.082Z,97167.58
2022-11-18T18:27:34.838Z,97165.59
2022-11-18T18:30:01.302Z,97172.02
2022-11-18T18:32:27.904Z,97172.02
2022-11-18T18:34:54.443Z,97174.59
2022-11-18T18:37:20.870Z,97178.02
2022-11-18T18:39:47.318Z,97174.80
2022-11-18T18:42:14.017Z,97177.52
2022-11-18T18:44:40.705Z,97177.17
2022-11-18T18:47:07.142Z,97178.34
2022-11-18T18:49:33.689Z,97181.02
2022-11-18T18:52:00.118Z,97185.95
2022-11-18T18:54:26.595Z,97193.40
2022-11-18T18:56:53.102Z,97197.83
2022-11-18T18:59:19.541Z,97198.70
2022-11-18T19:01:46.015Z,97200.05
2022-11-18T19:04:13.747Z,97202.74
2022-11-18T19:07:00.478Z,97204.09
2022-11-18T19:09:27.412Z,97202.92
2022-11-18T19:12:38.066Z,97204.11
2022-11-18T19:15:49.514Z,97203.63
2022-11-18T19:19:00.245Z,97197.70
2022-11-18T19:22:11.482Z,97203.17
2022-11-18T19:25:22.306Z,97195.55
2022-11-18T19:28:33.389Z,97196.23
2022-11-18T19:31:44.230Z,97205.74
2022-11-18T19:34:55.457Z,97212.55
2022-11-18T19:38:06.543Z,97223.42
2022-11-18T19:40:34.577Z,97223.27
2022-11-18T19:43:01.007Z,97224.44
2022-11-18T19:45:27.419Z,97218.63
2022-11-18T19:47:53.934Z,97218.83
2022-11-18T19:50:20.479Z,97217.47
2022-11-18T19:52:49.983Z,97216.61
2022-11-18T19:55:16.564Z,97217.65
2022-11-18T19:57:42.994Z,97219.21
2022-11-18T20:00:10.283Z,97222.63
2022-11-18T20:02:39.516Z,97223.84
2022-11-18T20:05:06.576Z,97230.98
2022-11-18T20:07:33.141Z,97228.60
2022-11-18T20:09:59.755Z,97230.47
2022-11-18T20:12:26.145Z,97221.12
2022-11-18T20:14:52.557Z,97218.26
2022-11-18T20:17:19.071Z,97222.70
2022-11-18T20:19:45.511Z,97223.21
2022-11-18T20:22:14.591Z,97223.92
2022-11-18T20:24:41.062Z,97224.42
2022-11-18T20:27:07.587Z,97228.67
2022-11-18T20:29:34.127Z,97229.02
2022-11-18T20:32:00.668Z,97231.91
2022-11-18T20:34:28.642Z,97238.20
2022-11-18T20:36:55.067Z,97236.33
2022-11-18T20:39:21.812Z,97241.09
2022-11-18T20:41:48.674Z,97237.70
2022-11-18T20:44:15.119Z,97237.36
2022-11-18T20:46:41.557Z,97237.52
2022-11-18T20:49:08.189Z,97239.86
2022-11-18T20:51:34.593Z,97239.01
2022-11-18T20:54:01.003Z,97246.00
2022-11-18T20:56:28.427Z,97251.12
2022-11-18T20:58:56.819Z,97252.14
2022-11-18T21:01:26.842Z,97253.31
2022-11-18T21:03:54.667Z,97252.45
2022-11-18T21:06:23.539Z,97254.84
2022-11-18T21:08:58.223Z,97252.46
2022-11-18T21:11:25.287Z,97248.08
2022-11-18T21:13:51.995Z,97241.83
2022-11-18T21:16:19.700Z,97244.70
2022-11-18T21:18:46.827Z,97250.45
2022-11-18T21:21:13.340Z,97252.48
2022-11-18T21:23:39.819Z,97245.35
2022-11-18T21:26:11.867Z,97236.85
2022-11-18T21:28:39.684Z,97238.54
2022-11-18T21:31:08.554Z,97248.23
2022-11-18T21:33:34.973Z,97255.85
2022-11-18T21:36:01.536Z,97262.81
2022-11-18T21:38:28.074Z,97272.63
2022-11-18T21:40:54.610Z,97282.30
2022-11-18T21:43:32.871Z,97288.57
2022-11-18T21:46:10.115Z,97295.36
2022-11-18T21:48:37.061Z,97301.29
2022-11-18T21:51:06.783Z,97301.61
2022-11-18T21:53:33.203Z,97297.19
2022-11-18T21:56:01.569Z,97292.10
2022-11-18T21:58:28.035Z,97292.81
2022-11-18T22:00:54.510Z,97292.99
2022-11-18T22:03:21.146Z,97297.77
2022-11-18T22:05:47.648Z,97302.02
2022-11-18T22:08:14.046Z,97306.62
2022-11-18T22:10:46.185Z,97307.44
2022-11-18T22:13:12.617Z,97309.66
2022-11-18T22:15:39.004Z,97308.98
2022-11-18T22:18:05.581Z,97308.99
2022-11-18T22:20:32.227Z,97312.02
2022-11-18T22:22:58.695Z,97310.50
2022-11-18T22:25:25.300Z,97307.14
2022-11-18T22:27:54.811Z,97316.15
2022-11-18T22:30:21.296Z,97317.86
2022-11-18T22:32:47.762Z,97322.98
2022-11-18T22:35:14.145Z,97323.50
2022-11-18T22:37:40.662Z,97325.56
2022-11-18T22:40:07.916Z,97327.25
2022-11-18T22:42:34.406Z,97331.00
2022-11-18T22:45:00.893Z,97326.73
2022-11-18T22:47:27.286Z,97333.70
2022-11-18T22:49:56.532Z,97339.66
2022-11-18T22:52:23.282Z,97334.39
2022-11-18T22:54:49.752Z,97337.63
2022-11-18T22:57:16.245Z,97341.40
2022-11-18T22:59:42.645Z,97343.77
2022-11-18T23:02:09.118Z,97347.19
2022-11-18T23:04:35.807Z,97346.52
2022-11-18T23:07:02.415Z,97342.77
2022-11-18T23:09:29.149Z,97351.58
2022-11-18T23:11:55.586Z,97357.82
2022-11-18T23:14:22.022Z,97361.20
2022-11-18T23:16:48.560Z,97355.57
2022-11-18T23:19:17.450Z,97360.13
2022-11-18T23:21:45.533Z,97365.89
2022-11-18T23:24:16.162Z,97374.35
2022-11-18T23:26:43.438Z,97374.31
2022-11-18T23:29:11.495Z,97373.30
2022-11-18T23:31:40.999Z,97372.27
2022-11-18T23:34:07.435Z,97369.70
2022-11-18T23:36:33.978Z,97366.80
2022-11-18T23:39:00.417Z,97375.28
2022-11-18T23:41:26.861Z,97368.84
2022-11-18T23:43:53.391Z,97371.44
2022-11-18T23:46:19.927Z,97372.52
2022-11-18T23:48:47.076Z,97367.09
2022-11-18T23:51:19.128Z,97369.64
2022-11-18T23:53:47.232Z,97369.27
2022-11-18T23:56:16.214Z,97372.54
2022-11-18T23:58:45.267Z,97365.58
